sensor_id;sensor_type;location;lat;lon;timestamp;pressure;altitude;pressure_sealevel;temperature;humidity
23118;BME280;11728;50.624;6.014;2022-11-24T00:04:26;97230.44;;;8.06;100.00
23118;BME280;11728;50.624;6.014;2022-11-24T00:09:26;97234.03;;;8.02;100.00
23118;BME280;11728;50.624;6.014;2022-11-24T00:14:27;97241.88;;;8.04;100.00
23118;BME280;11728;50.624;6.014;2022-11-24T00:19:27;97240.31;;;7.98;100.00
23118;BME280;11728;50.624;6.014;2022-11-24T00:24:28;97223.72;;;7.96;100.00
23118;BME280;11728;50.624;6.014;2022-11-24T00:29:28;97240.06;;;8.06;100.00
23118;BME280;11728;50.624;6.014;2022-11-24T00:34:28;97241.38;;;8.22;100.00
23118;BME280;11728;50.624;6.014;2022-11-24T00:39:29;97240.06;;;8.36;100.00
23118;BME280;11728;50.624;6.014;2022-11-24T00:44:29;97252.00;;;8.46;100.00
23118;BME280;11728;50.624;6.014;2022-11-24T00:49:30;97249.13;;;8.53;100.00
23118;BME280;11728;50.624;6.014;2022-11-24T00:54:30;97254.44;;;8.52;100.00
23118;BME280;11728;50.624;6.014;2022-11-24T00:59:31;97256.91;;;8.58;100.00
23118;BME280;11728;50.624;6.014;2022-11-24T01:04:31;97270.94;;;8.57;100.00
23118;BME280;11728;50.624;6.014;2022-11-24T01:09:32;97270.22;;;8.52;100.00
23118;BME280;11728;50.624;6.014;2022-11-24T01:14:33;97270.06;;;8.56;100.00
23118;BME280;11728;50.624;6.014;2022-11-24T01:19:33;97259.47;;;8.59;100.00
23118;BME280;11728;50.624;6.014;2022-11-24T01:24:34;97268.81;;;8.68;100.00
23118;BME280;11728;50.624;6.014;2022-11-24T01:29:34;97284.41;;;8.74;100.00
23118;BME280;11728;50.624;6.014;2022-11-24T01:34:35;97283.00;;;8.64;100.00
23118;BME280;11728;50.624;6.014;2022-11-24T01:39:35;97276.41;;;8.51;100.00
23118;BME280;11728;50.624;6.014;2022-11-24T01:44:36;97268.66;;;8.46;100.00
23118;BME280;11728;50.624;6.014;2022-11-24T01:49:43;97276.75;;;8.39;100.00
23118;BME280;11728;50.624;6.014;2022-11-24T01:54:50;97269.06;;;8.33;100.00
23118;BME280;11728;50.624;6.014;2022-11-24T01:59:55;97269.34;;;8.24;100.00
23118;BME280;11728;50.624;6.014;2022-11-24T02:05:02;97269.44;;;8.21;100.00
23118;BME280;11728;50.624;6.014;2022-11-24T02:10:11;97278.09;;;8.25;100.00
23118;BME280;11728;50.624;6.014;2022-11-24T02:15:14;97286.00;;;8.25;100.00
23118;BME280;11728;50.624;6.014;2022-11-24T02:20:15;97284.16;;;8.27;100.00
23118;BME280;11728;50.624;6.014;2022-11-24T02:30:23;97296.00;;;8.41;100.00
23118;BME280;11728;50.624;6.014;2022-11-24T02:35:26;97299.16;;;8.52;100.00
23118;BME280;11728;50.624;6.014;2022-11-24T02:40:27;97293.75;;;8.56;100.00
23118;BME280;11728;50.624;6.014;2022-11-24T02:45:30;97308.44;;;8.63;100.00
23118;BME280;11728;50.624;6.014;2022-11-24T02:50:31;97312.56;;;8.72;100.00
23118;BME280;11728;50.624;6.014;2022-11-24T02:55:31;97310.44;;;8.83;100.00
23118;BME280;11728;50.624;6.014;2022-11-24T03:00:32;97316.41;;;8.89;100.00
23118;BME280;11728;50.624;6.014;2022-11-24T03:05:32;97317.16;;;8.93;100.00
23118;BME280;11728;50.624;6.014;2022-11-24T03:10:33;97310.88;;;8.97;100.00
23118;BME280;11728;50.624;6.014;2022-11-24T03:15:34;97325.53;;;9.05;100.00
23118;BME280;11728;50.624;6.014;2022-11-24T03:20:34;97322.91;;;9.05;100.00
23118;BME280;11728;50.624;6.014;2022-11-24T03:25:35;97323.75;;;9.06;99.86
23118;BME280;11728;50.624;6.014;2022-11-24T03:30:36;97325.56;;;9.04;100.00
23118;BME280;11728;50.624;6.014;2022-11-24T03:35:36;97335.25;;;9.03;99.68
23118;BME280;11728;50.624;6.014;2022-11-24T03:40:37;97334.28;;;9.06;100.00
23118;BME280;11728;50.624;6.014;2022-11-24T03:45:37;97341.34;;;9.04;99.46
23118;BME280;11728;50.624;6.014;2022-11-24T03:50:38;97337.03;;;9.03;99.79
23118;BME280;11728;50.624;6.014;2022-11-24T03:55:38;97329.78;;;9.09;99.30
23118;BME280;11728;50.624;6.014;2022-11-24T04:00:40;97328.63;;;9.18;98.95
23118;BME280;11728;50.624;6.014;2022-11-24T04:05:41;97333.78;;;9.20;98.71
23118;BME280;11728;50.624;6.014;2022-11-24T04:10:41;97346.03;;;9.21;98.70
23118;BME280;11728;50.624;6.014;2022-11-24T04:15:42;97349.50;;;9.23;98.30
23118;BME280;11728;50.624;6.014;2022-11-24T04:20:43;97358.38;;;9.21;98.50
23118;BME280;11728;50.624;6.014;2022-11-24T04:25:44;97350.47;;;9.21;98.20
23118;BME280;11728;50.624;6.014;2022-11-24T04:30:45;97365.38;;;9.20;98.46
23118;BME280;11728;50.624;6.014;2022-11-24T04:35:45;97379.56;;;9.17;99.40
23118;BME280;11728;50.624;6.014;2022-11-24T04:40:46;97391.38;;;9.04;100.00
23118;BME280;11728;50.624;6.014;2022-11-24T04:45:46;97387.34;;;8.92;100.00
23118;BME280;11728;50.624;6.014;2022-11-24T04:50:47;97400.00;;;8.81;100.00
23118;BME280;11728;50.624;6.014;2022-11-24T04:55:48;97416.94;;;8.73;100.00
23118;BME280;11728;50.624;6.014;2022-11-24T05:00:48;97420.59;;;8.67;100.00
23118;BME280;11728;50.624;6.014;2022-11-24T05:05:49;97429.53;;;8.62;100.00
23118;BME280;11728;50.624;6.014;2022-11-24T05:10:49;97427.03;;;8.57;100.00
23118;BME280;11728;50.624;6.014;2022-11-24T05:15:49;97433.31;;;8.53;100.00
23118;BME280;11728;50.624;6.014;2022-11-24T05:20:50;97450.13;;;8.48;100.00
23118;BME280;11728;50.624;6.014;2022-11-24T05:25:51;97453.75;;;8.44;100.00
23118;BME280;11728;50.624;6.014;2022-11-24T05:30:52;97467.88;;;8.40;100.00
23118;BME280;11728;50.624;6.014;2022-11-24T05:35:53;97481.09;;;8.37;100.00
23118;BME280;11728;50.624;6.014;2022-11-24T05:40:59;97479.41;;;8.35;100.00
23118;BME280;11728;50.624;6.014;2022-11-24T05:46:00;97491.13;;;8.23;100.00
23118;BME280;11728;50.624;6.014;2022-11-24T05:51:01;97474.75;;;8.12;100.00
23118;BME280;11728;50.624;6.014;2022-11-24T05:56:02;97487.28;;;8.03;100.00
23118;BME280;11728;50.624;6.014;2022-11-24T06:01:06;97509.38;;;7.94;100.00
23118;BME280;11728;50.624;6.014;2022-11-24T06:06:07;97508.69;;;7.88;100.00
23118;BME280;11728;50.624;6.014;2022-11-24T06:11:08;97514.84;;;7.85;100.00
23118;BME280;11728;50.624;6.014;2022-11-24T06:16:17;97507.22;;;7.76;100.00
23118;BME280;11728;50.624;6.014;2022-11-24T06:21:18;97508.03;;;7.78;100.00
23118;BME280;11728;50.624;6.014;2022-11-24T06:26:18;97509.66;;;7.84;100.00
23118;BME280;11728;50.624;6.014;2022-11-24T06:31:19;97518.63;;;7.75;100.00
23118;BME280;11728;50.624;6.014;2022-11-24T06:36:19;97518.25;;;7.56;100.00
23118;BME280;11728;50.624;6.014;2022-11-24T06:41:20;97529.06;;;7.42;100.00
23118;BME280;11728;50.624;6.014;2022-11-24T06:46:21;97533.66;;;7.33;100.00
23118;BME280;11728;50.624;6.014;2022-11-24T06:51:21;97543.25;;;7.34;100.00
23118;BME280;11728;50.624;6.014;2022-11-24T06:56:22;97551.00;;;7.40;100.00
23118;BME280;11728;50.624;6.014;2022-11-24T07:01:24;97544.88;;;7.39;100.00
23118;BME280;11728;50.624;6.014;2022-11-24T07:06:26;97565.78;;;7.44;100.00
23118;BME280;11728;50.624;6.014;2022-11-24T07:11:27;97584.03;;;7.50;100.00
23118;BME280;11728;50.624;6.014;2022-11-24T07:16:28;97589.00;;;7.63;100.00
23118;BME280;11728;50.624;6.014;2022-11-24T07:21:29;97604.44;;;7.76;100.00
23118;BME280;11728;50.624;6.014;2022-11-24T07:26:30;97614.13;;;7.74;100.00
23118;BME280;11728;50.624;6.014;2022-11-24T07:31:30;97633.91;;;7.89;100.00
23118;BME280;11728;50.624;6.014;2022-11-24T07:36:31;97645.00;;;8.03;100.00
23118;BME280;11728;50.624;6.014;2022-11-24T07:41:31;97650.91;;;8.12;100.00
23118;BME280;11728;50.624;6.014;2022-11-24T07:46:32;97661.31;;;8.18;100.00
23118;BME280;11728;50.624;6.014;2022-11-24T07:51:32;97669.94;;;8.23;100.00
23118;BME280;11728;50.624;6.014;2022-11-24T07:56:32;97693.44;;;8.31;100.00
23118;BME280;11728;50.624;6.014;2022-11-24T08:01:33;97701.09;;;8.41;100.00
23118;BME280;11728;50.624;6.014;2022-11-24T08:06:33;97681.56;;;8.51;100.00
23118;BME280;11728;50.624;6.014;2022-11-24T08:11:34;97706.13;;;8.85;100.00
23118;BME280;11728;50.624;6.014;2022-11-24T08:16:35;97710.84;;;9.06;100.00
23118;BME280;11728;50.624;6.014;2022-11-24T08:21:36;97717.13;;;9.00;100.00
23118;BME280;11728;50.624;6.014;2022-11-24T08:26:37;97736.53;;;8.96;100.00
23118;BME280;11728;50.624;6.014;2022-11-24T08:31:38;97736.22;;;9.08;100.00
23118;BME280;11728;50.624;6.014;2022-11-24T08:36:38;97740.31;;;9.19;100.00
23118;BME280;11728;50.624;6.014;2022-11-24T08:41:39;97753.84;;;9.70;100.00
23118;BME280;11728;50.624;6.014;2022-11-24T08:46:39;97757.59;;;10.22;100.00
23118;BME280;11728;50.624;6.014;2022-11-24T08:51:40;97758.75;;;11.96;93.97
23118;BME280;11728;50.624;6.014;2022-11-24T08:56:41;97767.31;;;12.25;89.33
23118;BME280;11728;50.624;6.014;2022-11-24T09:01:41;97774.41;;;13.34;84.63
23118;BME280;11728;50.624;6.014;2022-11-24T09:06:42;97777.47;;;13.85;82.20
23118;BME280;11728;50.624;6.014;2022-11-24T09:11:42;97784.03;;;13.57;79.83
23118;BME280;11728;50.624;6.014;2022-11-24T09:16:43;97790.34;;;14.89;75.75
23118;BME280;11728;50.624;6.014;2022-11-24T09:21:43;97790.00;;;15.32;73.07
23118;BME280;11728;50.624;6.014;2022-11-24T09:26:44;97798.47;;;13.50;73.95
23118;BME280;11728;50.624;6.014;2022-11-24T09:31:44;97820.84;;;12.33;79.06
23118;BME280;11728;50.624;6.014;2022-11-24T09:36:45;97814.53;;;14.46;73.61
23118;BME280;11728;50.624;6.014;2022-11-24T09:52:39;97810.47;;;17.12;64.18
23118;BME280;11728;50.624;6.014;2022-11-24T09:57:40;97815.28;;;18.11;59.91
23118;BME280;11728;50.624;6.014;2022-11-24T10:02:44;97820.78;;;18.23;57.98
23118;BME280;11728;50.624;6.014;2022-11-24T10:13:21;97824.56;;;17.61;57.16
23118;BME280;11728;50.624;6.014;2022-11-24T10:18:59;97831.97;;;18.30;56.12
23118;BME280;11728;50.624;6.014;2022-11-24T10:29:38;97835.63;;;19.40;52.75
23118;BME280;11728;50.624;6.014;2022-11-24T10:34:43;97837.34;;;19.41;52.09
23118;BME280;11728;50.624;6.014;2022-11-24T10:55:19;97859.63;;;17.70;53.98
23118;BME280;11728;50.624;6.014;2022-11-24T11:05:36;97859.31;;;19.46;49.44
23118;BME280;11728;50.624;6.014;2022-11-24T11:10:42;97864.59;;;20.26;47.66
23118;BME280;11728;50.624;6.014;2022-11-24T11:15:43;97851.59;;;20.20;47.69
23118;BME280;11728;50.624;6.014;2022-11-24T11:20:55;97850.59;;;20.60;45.36
23118;BME280;11728;50.624;6.014;2022-11-24T11:26:16;97857.59;;;20.75;44.90
23118;BME280;11728;50.624;6.014;2022-11-24T11:31:19;97857.69;;;21.11;44.86
23118;BME280;11728;50.624;6.014;2022-11-24T11:36:20;97861.78;;;22.00;44.37
23118;BME280;11728;50.624;6.014;2022-11-24T11:41:28;97855.91;;;22.75;43.39
23118;BME280;11728;50.624;6.014;2022-11-24T11:46:33;97846.31;;;23.38;41.79
23118;BME280;11728;50.624;6.014;2022-11-24T11:57:10;97841.06;;;23.15;40.27
23118;BME280;11728;50.624;6.014;2022-11-24T12:07:57;97846.22;;;23.07;40.56
23118;BME280;11728;50.624;6.014;2022-11-24T12:13:35;97849.03;;;23.05;39.46
23118;BME280;11728;50.624;6.014;2022-11-24T12:18:43;97843.44;;;22.05;40.19
23118;BME280;11728;50.624;6.014;2022-11-24T12:34:52;97827.59;;;22.24;39.76
23118;BME280;11728;50.624;6.014;2022-11-24T12:40:12;97823.88;;;22.03;40.00
23118;BME280;11728;50.624;6.014;2022-11-24T12:45:17;97824.91;;;22.48;39.93
23118;BME280;11728;50.624;6.014;2022-11-24T12:50:24;97833.72;;;22.15;39.48
23118;BME280;11728;50.624;6.014;2022-11-24T12:55:27;97833.22;;;21.87;39.65
23118;BME280;11728;50.624;6.014;2022-11-24T13:00:38;97833.41;;;20.63;40.67
23118;BME280;11728;50.624;6.014;2022-11-24T13:06:02;97841.56;;;19.31;43.19
23118;BME280;11728;50.624;6.014;2022-11-24T13:11:25;97845.38;;;18.44;44.97
23118;BME280;11728;50.624;6.014;2022-11-24T13:16:32;97853.13;;;17.74;46.72
23118;BME280;11728;50.624;6.014;2022-11-24T13:21:45;97846.44;;;17.05;47.70
23118;BME280;11728;50.624;6.014;2022-11-24T13:42:28;97863.63;;;15.85;51.11
23118;BME280;11728;50.624;6.014;2022-11-24T14:03:23;97823.69;;;17.60;48.82
23118;BME280;11728;50.624;6.014;2022-11-24T14:08:32;97837.78;;;17.77;48.10
23118;BME280;11728;50.624;6.014;2022-11-24T14:13:33;97838.66;;;17.78;48.16
23118;BME280;11728;50.624;6.014;2022-11-24T14:18:36;97836.78;;;17.80;48.52
23118;BME280;11728;50.624;6.014;2022-11-24T14:23:40;97843.38;;;17.28;49.16
23118;BME280;11728;50.624;6.014;2022-11-24T14:28:41;97839.72;;;16.34;50.96
23118;BME280;11728;50.624;6.014;2022-11-24T14:33:41;97848.69;;;14.92;53.77
23118;BME280;11728;50.624;6.014;2022-11-24T14:38:42;97852.53;;;14.08;56.18
23118;BME280;11728;50.624;6.014;2022-11-24T14:43:43;97860.06;;;13.97;57.00
23118;BME280;11728;50.624;6.014;2022-11-24T14:48:48;97861.59;;;13.83;58.35
23118;BME280;11728;50.624;6.014;2022-11-24T14:53:51;97863.41;;;13.41;59.49
23118;BME280;11728;50.624;6.014;2022-11-24T14:58:54;97858.69;;;13.05;60.75
23118;BME280;11728;50.624;6.014;2022-11-24T15:04:13;97872.50;;;12.44;62.23
23118;BME280;11728;50.624;6.014;2022-11-24T15:09:21;97883.59;;;12.07;63.83
23118;BME280;11728;50.624;6.014;2022-11-24T15:14:37;97888.25;;;11.76;64.85
23118;BME280;11728;50.624;6.014;2022-11-24T15:19:38;97890.66;;;11.56;64.97
23118;BME280;11728;50.624;6.014;2022-11-24T15:24:48;97887.56;;;11.42;65.32
23118;BME280;11728;50.624;6.014;2022-11-24T15:29:48;97891.63;;;11.26;65.75
23118;BME280;11728;50.624;6.014;2022-11-24T15:34:49;97893.66;;;10.89;67.71
23118;BME280;11728;50.624;6.014;2022-11-24T15:39:49;97889.94;;;10.68;68.50
23118;BME280;11728;50.624;6.014;2022-11-24T15:44:50;97887.13;;;10.73;68.81
23118;BME280;11728;50.624;6.014;2022-11-24T15:49:50;97896.44;;;10.56;69.03
23118;BME280;11728;50.624;6.014;2022-11-24T15:54:53;97886.78;;;10.55;69.65
23118;BME280;11728;50.624;6.014;2022-11-24T15:59:55;97881.66;;;10.20;70.88
23118;BME280;11728;50.624;6.014;2022-11-24T16:04:55;97876.22;;;9.93;72.32
23118;BME280;11728;50.624;6.014;2022-11-24T16:09:56;97890.81;;;9.74;73.75
23118;BME280;11728;50.624;6.014;2022-11-24T16:14:56;97886.00;;;9.56;74.80
23118;BME280;11728;50.624;6.014;2022-11-24T16:19:57;97880.09;;;9.47;75.19
23118;BME280;11728;50.624;6.014;2022-11-24T16:24:57;97888.16;;;9.41;75.81
23118;BME280;11728;50.624;6.014;2022-11-24T16:29:58;97890.00;;;9.37;75.73
23118;BME280;11728;50.624;6.014;2022-11-24T16:35:00;97894.53;;;9.32;75.42
23118;BME280;11728;50.624;6.014;2022-11-24T16:40:01;97895.44;;;9.31;75.86
23118;BME280;11728;50.624;6.014;2022-11-24T16:45:02;97891.19;;;9.26;75.97
23118;BME280;11728;50.624;6.014;2022-11-24T16:50:03;97881.72;;;9.18;76.90
23118;BME280;11728;50.624;6.014;2022-11-24T16:55:05;97887.22;;;9.07;77.71
23118;BME280;11728;50.624;6.014;2022-11-24T17:00:08;97886.53;;;9.01;78.27
23118;BME280;11728;50.624;6.014;2022-11-24T17:05:08;97891.94;;;8.95;78.83
23118;BME280;11728;50.624;6.014;2022-11-24T17:10:09;97895.38;;;8.97;78.33
23118;BME280;11728;50.624;6.014;2022-11-24T17:15:09;97894.56;;;8.95;78.43
23118;BME280;11728;50.624;6.014;2022-11-24T17:20:10;97901.69;;;8.90;78.91
23118;BME280;11728;50.624;6.014;2022-11-24T17:25:11;97903.56;;;8.85;78.74
23118;BME280;11728;50.624;6.014;2022-11-24T17:30:12;97896.75;;;8.76;79.25
23118;BME280;11728;50.624;6.014;2022-11-24T17:35:12;97898.59;;;8.73;79.46
23118;BME280;11728;50.624;6.014;2022-11-24T17:40:13;97901.34;;;8.65;79.50
23118;BME280;11728;50.624;6.014;2022-11-24T17:45:18;97902.34;;;8.60;80.22
23118;BME280;11728;50.624;6.014;2022-11-24T17:50:18;97897.22;;;8.54;80.69
23118;BME280;11728;50.624;6.014;2022-11-24T17:55:19;97897.31;;;8.51;81.61
23118;BME280;11728;50.624;6.014;2022-11-24T18:00:19;97886.78;;;8.51;82.13
23118;BME280;11728;50.624;6.014;2022-11-24T18:05:20;97891.25;;;8.46;82.30
23118;BME280;11728;50.624;6.014;2022-11-24T18:10:20;97894.78;;;8.45;82.46
23118;BME280;11728;50.624;6.014;2022-11-24T18:15:21;97903.59;;;8.42;83.04
23118;BME280;11728;50.624;6.014;2022-11-24T18:20:22;97906.28;;;8.41;83.38
23118;BME280;11728;50.624;6.014;2022-11-24T18:25:22;97911.59;;;8.38;83.91
23118;BME280;11728;50.624;6.014;2022-11-24T18:30:23;97893.25;;;8.34;84.46
23118;BME280;11728;50.624;6.014;2022-11-24T18:35:23;97893.25;;;8.35;85.79
23118;BME280;11728;50.624;6.014;2022-11-24T18:40:24;97883.69;;;8.31;86.19
23118;BME280;11728;50.624;6.014;2022-11-24T18:45:24;97885.50;;;8.28;86.71
23118;BME280;11728;50.624;6.014;2022-11-24T18:50:25;97873.28;;;8.25;87.99
23118;BME280;11728;50.624;6.014;2022-11-24T18:55:25;97860.09;;;8.27;88.07
23118;BME280;11728;50.624;6.014;2022-11-24T19:00:26;97872.22;;;8.35;88.21
23118;BME280;11728;50.624;6.014;2022-11-24T19:05:26;97868.56;;;8.40;88.25
23118;BME280;11728;50.624;6.014;2022-11-24T19:10:34;97878.22;;;8.40;88.38
23118;BME280;11728;50.624;6.014;2022-11-24T19:15:35;97871.28;;;8.38;88.45
23118;BME280;11728;50.624;6.014;2022-11-24T19:20:35;97873.94;;;8.36;88.64
23118;BME280;11728;50.624;6.014;2022-11-24T19:25:36;97859.97;;;8.34;88.71
23118;BME280;11728;50.624;6.014;2022-11-24T19:30:37;97873.91;;;8.38;89.02
23118;BME280;11728;50.624;6.014;2022-11-24T19:35:39;97875.75;;;8.34;89.09
23118;BME280;11728;50.624;6.014;2022-11-24T19:40:39;97882.78;;;8.32;89.31
23118;BME280;11728;50.624;6.014;2022-11-24T19:45:40;97885.41;;;8.32;89.28
23118;BME280;11728;50.624;6.014;2022-11-24T19:50:43;97880.09;;;8.35;89.84
23118;BME280;11728;50.624;6.014;2022-11-24T19:55:43;97888.81;;;8.37;89.42
23118;BME280;11728;50.624;6.014;2022-11-24T20:00:44;97885.31;;;8.37;90.15
23118;BME280;11728;50.624;6.014;2022-11-24T20:05:53;97872.84;;;8.46;90.47
23118;BME280;11728;50.624;6.014;2022-11-24T20:11:00;97888.72;;;8.43;90.60
23118;BME280;11728;50.624;6.014;2022-11-24T20:16:28;97886.03;;;8.44;90.97
23118;BME280;11728;50.624;6.014;2022-11-24T20:21:29;97886.88;;;8.45;90.83
23118;BME280;11728;50.624;6.014;2022-11-24T20:26:38;97888.63;;;8.46;91.29
23118;BME280;11728;50.624;6.014;2022-11-24T20:31:42;97884.16;;;8.49;91.76
23118;BME280;11728;50.624;6.014;2022-11-24T20:36:44;97883.34;;;8.46;91.93
23118;BME280;11728;50.624;6.014;2022-11-24T20:41:45;97886.84;;;8.48;92.10
23118;BME280;11728;50.624;6.014;2022-11-24T20:46:45;97889.50;;;8.46;92.72
23118;BME280;11728;50.624;6.014;2022-11-24T20:51:46;97889.56;;;8.43;93.08
23118;BME280;11728;50.624;6.014;2022-11-24T20:56:48;97879.84;;;8.47;93.46
23118;BME280;11728;50.624;6.014;2022-11-24T21:01:49;97893.00;;;8.47;94.04
23118;BME280;11728;50.624;6.014;2022-11-24T21:06:50;97888.63;;;8.46;94.13
23118;BME280;11728;50.624;6.014;2022-11-24T21:11:51;97887.72;;;8.47;94.93
23118;BME280;11728;50.624;6.014;2022-11-24T21:16:51;97891.16;;;8.50;95.09
23118;BME280;11728;50.624;6.014;2022-11-24T21:21:52;97875.38;;;8.50;95.49
23118;BME280;11728;50.624;6.014;2022-11-24T21:26:52;97874.38;;;8.56;95.49
23118;BME280;11728;50.624;6.014;2022-11-24T21:31:53;97868.97;;;8.62;95.75
23118;BME280;11728;50.624;6.014;2022-11-24T21:36:53;97853.06;;;8.68;96.39
23118;BME280;11728;50.624;6.014;2022-11-24T21:41:54;97842.38;;;8.75;96.67
23118;BME280;11728;50.624;6.014;2022-11-24T21:46:54;97853.66;;;8.80;96.50
23118;BME280;11728;50.624;6.014;2022-11-24T21:51:55;97841.28;;;8.84;97.27
23118;BME280;11728;50.624;6.014;2022-11-24T21:56:55;97851.81;;;8.84;96.56
23118;BME280;11728;50.624;6.014;2022-11-24T22:01:56;97868.44;;;8.86;96.70
23118;BME280;11728;50.624;6.014;2022-11-24T22:06:56;97862.44;;;8.79;96.44
23118;BME280;11728;50.624;6.014;2022-11-24T22:11:57;97852.66;;;8.86;97.09
23118;BME280;11728;50.624;6.014;2022-11-24T22:16:57;97855.41;;;9.18;96.90
23118;BME280;11728;50.624;6.014;2022-11-24T22:21:58;97846.34;;;9.27;96.29
23118;BME280;11728;50.624;6.014;2022-11-24T22:26:58;97841.00;;;9.30;96.11
23118;BME280;11728;50.624;6.014;2022-11-24T22:32:02;97838.72;;;9.17;96.38
23118;BME280;11728;50.624;6.014;2022-11-24T22:37:02;97827.59;;;9.05;97.19
23118;BME280;11728;50.624;6.014;2022-11-24T22:42:03;97827.44;;;9.11;97.68
23118;BME280;11728;50.624;6.014;2022-11-24T22:47:03;97820.47;;;9.10;97.92
23118;BME280;11728;50.624;6.014;2022-11-24T22:52:04;97801.94;;;9.14;98.66
23118;BME280;11728;50.624;6.014;2022-11-24T22:57:04;97799.03;;;9.23;98.90
23118;BME280;11728;50.624;6.014;2022-11-24T23:02:05;97788.47;;;9.24;98.26
23118;BME280;11728;50.624;6.014;2022-11-24T23:07:05;97788.28;;;9.32;98.40
23118;BME280;11728;50.624;6.014;2022-11-24T23:12:06;97814.19;;;9.48;98.53
23118;BME280;11728;50.624;6.014;2022-11-24T23:17:06;97809.56;;;9.58;97.93
23118;BME280;11728;50.624;6.014;2022-11-24T23:22:07;97805.75;;;9.68;97.62
23118;BME280;11728;50.624;6.014;2022-11-24T23:27:07;97808.50;;;9.63;97.68
23118;BME280;11728;50.624;6.014;2022-11-24T23:32:08;97819.81;;;9.67;97.48
23118;BME280;11728;50.624;6.014;2022-11-24T23:37:08;97807.53;;;9.67;97.93
23118;BME280;11728;50.624;6.014;2022-11-24T23:42:09;97796.81;;;9.73;97.63
23118;BME280;11728;50.624;6.014;2022-11-24T23:47:10;97791.28;;;9.82;97.42
23118;BME280;11728;50.624;6.014;2022-11-24T23:52:10;97795.91;;;9.74;97.19
23118;BME280;11728;50.624;6.014;2022-11-24T23:57:11;97788.72;;;9.79;97.10
